• Join FlightAware (Why Join?)
  • Login
  • US Flag 
10:26AM EDT


 

Airport Tracker/Info


-or-


 

Live Flight TrackerFlight Track Log ✈ N775NC ✈ 15-Oct-2013 ✈ KATL - KBHM

Flight Track Log - Related Links

Times and Time Zones

All times are in EDT time to prevent confusion due to time zone crossing. See the N775NC flight status page for this flight to view local times or setup timezone preferences in your user account.

Time Position Orientation Groundspeed Altitude Reporting Facility
EDT Latitude Longitude Course Direction KTS MPH feet Rate Location/Type
03:43PM 33.6500 -84.3667 273° West 204 235 2,300  Level Atlanta TRACON
03:44PM 33.6833 -84.2833 64° Northeast 257 296 5,200 2,580 Climbing Atlanta TRACON
03:45PM 33.7500 -84.2667 12° North 277 319 7,600 1,680 Climbing Atlanta TRACON
03:46PM 33.6254 -84.9000 259° West  Level Estimated
03:47PM 33.6223 -85.0180 261° West  Level Estimated
03:48PM 33.6283 -85.1358 274° West  Level FlightAware Approximate
03:48PM 33.8103 -84.4389 293° West 270 311 10,700  Level Atlanta Center
03:49PM 33.6342 -85.2537 273° West  Level FlightAware Approximate
03:49PM 33.7953 -84.5739 262° West 328 377 12,900  Level Atlanta Center
03:50PM 33.7842 -84.6836 263° West 361 415 15,100 1,800 Climbing Atlanta Center
03:51PM 33.7753 -84.8061 265° West 367 422 16,600 1,500 Climbing Atlanta Center
03:52PM 33.7533 -84.9483 260° West 389 448 18,200 1,500 Climbing Atlanta Center
03:53PM 33.7128 -85.0678 248° West 394 453 19,600 900 Climbing Atlanta Center
03:54PM 33.6864 -85.2022 257° West 405 466 20,000 180 Climbing Atlanta Center
03:55PM 33.6706 -85.3442 262° West 423 487 20,000  Level Atlanta Center
03:56PM 33.6628 -85.4714 266° West 429 494 20,000 -960 Level Atlanta Center
03:57PM 33.6547 -85.6136 266° West 429 494 18,100 -2,400 Descending Atlanta Center
03:58PM 33.6300 -85.7453 257° West 422 486 15,300 -3,120 Descending Atlanta Center
03:58PM 33.6106 -85.8072 249° West 394 453 13,900 -3,000 Descending Atlanta Center
03:58PM 33.5969 -85.8644 254° West 393 452 12,700 -1,740 Descending Atlanta Center
03:59PM 33.5969 -85.8669 270° West 402 463 12,800 -1,800 Climbing Atlanta Center
04:00PM 33.5764 -85.9886 259° West 379 436 10,900 -1,920 Descending Atlanta Center
04:00PM 33.5761 -86.0036 269° West 391 450 10,900 60 Level Atlanta Center
04:01PM 33.5700 -86.1306 267° West 385 443 11,000  Climbing Atlanta Center
04:02PM 33.5678 -86.2503 269° West 380 437 10,900 -120 Descending Atlanta Center
04:02PM 33.5697 -86.2553 295° West 385 443 10,900 -840 Level Atlanta Center
04:03PM 33.5719 -86.3650 271° West 362 417 10,000 -1,200 Descending Atlanta Center
04:04PM 33.5703 -86.4522 269° West 269 310 8,600 -1,140 Descending Atlanta Center
04:04PM 33.5744 -86.4472 45° Northeast 315 362 8,900 -1,500 Climbing Atlanta Center
04:05PM 33.5581 -86.5392 258° West 295 339 7,000 -1,740 Descending Atlanta Center
04:06PM 33.5417 -86.6258 257° West 284 327 5,500 -1,080 Descending Atlanta Center
04:07PM 33.5128 -86.7022 246° West 261 300 4,900 -1,080 Descending Atlanta Center
04:08PM 33.4803 -86.7686 240° Southwest 248 285 3,400 -1,320 Descending Atlanta Center
04:08PM 33.4664 -86.8228 253° West 146 168 2,500 -840 Descending Atlanta Center
04:10PM 33.5100 -86.8317 350° North 164 189 1,900 -720 Descending Atlanta Center
04:11PM 33.5381 -86.7978 45° Northeast 144 166 1,100 -840 Descending Atlanta Center